Time;durP1;ratioP1;P1;durP2;ratioP2;P2;SDS_P1;SDS_P2;PMS_P1;PMS_P2;Temp;Humidity;BMP_temperature;BMP_pressure;BME280_temperature;BME280_humidity;BME280_pressure;Samples;Min_cycle;Max_cycle;Signal;HPM_P1;HPM_P2
2023/08/26 00:01:31;;;;;;;16.70;11.70;;;21.00;53.50;;;;;;5083946;27;46305;-69
2023/08/26 00:03:56;;;;;;;16.60;11.57;;;20.90;53.50;;;;;;5085739;27;45992;-67
2023/08/26 00:06:22;;;;;;;17.63;11.20;;;20.90;52.70;;;;;;5084227;27;46501;-68
2023/08/26 00:08:51;;;;;;;17.03;11.00;;;20.90;53.80;;;;;;5088977;27;46553;-68
2023/08/26 00:11:17;;;;;;;19.57;10.80;;;20.90;53.60;;;;;;5081340;27;46994;-67
2023/08/26 00:13:42;;;;;;;17.50;10.63;;;20.90;53.90;;;;;;5080520;27;46604;-68
2023/08/26 00:16:08;;;;;;;19.73;11.33;;;20.90;53.90;;;;;;5084818;27;46512;-67
2023/08/26 00:18:35;;;;;;;20.40;11.60;;;20.90;52.90;;;;;;5083285;27;46696;-67
2023/08/26 00:21:00;;;;;;;23.40;11.60;;;20.90;54.00;;;;;;5086097;27;46467;-67
2023/08/26 00:23:26;;;;;;;17.47;11.77;;;20.90;54.50;;;;;;5087451;27;46535;-68
2023/08/26 00:25:52;;;;;;;18.83;11.17;;;20.90;54.70;;;;;;5084623;27;46435;-68
2023/08/26 00:28:17;;;;;;;17.43;10.63;;;20.80;54.80;;;;;;5085820;27;46746;-67
2023/08/26 00:30:44;;;;;;;17.60;11.00;;;20.80;56.80;;;;;;5086097;27;46511;-67
2023/08/26 00:33:09;;;;;;;16.20;10.87;;;20.70;57.60;;;;;;5083662;27;46626;-66
2023/08/26 00:35:37;;;;;;;21.20;11.10;;;20.70;58.10;;;;;;5084831;27;46458;-67
2023/08/26 00:38:03;;;;;;;20.83;11.30;;;20.70;60.00;;;;;;5083935;27;46442;-67
2023/08/26 00:40:34;;;;;;;15.80;10.73;;;20.70;58.90;;;;;;5084194;27;46676;-67
2023/08/26 00:43:08;;;;;;;19.53;10.37;;;20.70;58.80;;;;;;5083065;27;45887;-67
2023/08/26 00:45:35;;;;;;;20.90;11.53;;;20.70;58.70;;;;;;5085408;27;47098;-67
2023/08/26 00:48:00;;;;;;;18.33;11.53;;;20.70;58.50;;;;;;5083384;27;46434;-67
2023/08/26 00:50:26;;;;;;;20.23;11.73;;;20.70;58.30;;;;;;5084449;27;46736;-68
2023/08/26 00:52:53;;;;;;;17.80;12.13;;;20.80;58.20;;;;;;5083659;27;46825;-67
2023/08/26 00:55:19;;;;;;;14.03;9.07;;;20.80;57.90;;;;;;5083739;27;46869;-67
2023/08/26 00:57:45;;;;;;;16.40;9.40;;;20.80;57.70;;;;;;5082103;27;46436;-67
2023/08/26 01:00:11;;;;;;;14.73;10.10;;;20.80;58.00;;;;;;5084770;27;46599;-67
2023/08/26 01:02:37;;;;;;;15.40;10.90;;;20.80;58.00;;;;;;5085143;27;46368;-68
2023/08/26 01:05:05;;;;;;;16.43;10.43;;;20.80;57.70;;;;;;5083288;27;46438;-68
2023/08/26 01:07:31;;;;;;;16.03;9.63;;;20.90;57.60;;;;;;5082529;27;45870;-69
2023/08/26 01:09:57;;;;;;;18.80;10.77;;;20.80;57.70;;;;;;5085724;27;46470;-68
2023/08/26 01:12:33;;;;;;;17.60;10.30;;;20.80;57.50;;;;;;5090716;27;46640;-68
2023/08/26 01:15:12;;;;;;;16.63;9.97;;;20.80;57.50;;;;;;5092312;27;46570;-67
2023/08/26 01:17:38;;;;;;;13.97;10.03;;;20.80;57.50;;;;;;5086911;27;46441;-67
2023/08/26 01:20:06;;;;;;;14.63;9.50;;;20.70;58.20;;;;;;5090282;27;46444;-67
2023/08/26 01:22:34;;;;;;;10.40;7.67;;;20.70;58.30;;;;;;5086373;27;46790;-67
2023/08/26 01:25:00;;;;;;;14.10;7.33;;;20.70;58.40;;;;;;5086900;27;46471;-66
2023/08/26 01:27:26;;;;;;;10.83;6.70;;;20.60;58.30;;;;;;5088672;27;45836;-67
2023/08/26 01:29:51;;;;;;;10.27;6.90;;;20.60;59.60;;;;;;5091022;27;46406;-67
2023/08/26 01:32:36;;;;;;;11.87;6.63;;;20.60;58.30;;;;;;5089960;27;46574;-68
2023/08/26 01:35:05;;;;;;;13.80;6.47;;;20.60;58.20;;;;;;5091182;27;47433;-68
2023/08/26 01:37:31;;;;;;;10.00;5.40;;;20.60;58.10;;;;;;5086638;27;46408;-68
2023/08/26 01:39:59;;;;;;;10.30;5.60;;;20.60;58.00;;;;;;5087920;27;46491;-68
2023/08/26 01:42:26;;;;;;;11.97;6.07;;;20.60;57.70;;;;;;5090713;27;46380;-69
2023/08/26 01:44:52;;;;;;;8.33;5.77;;;20.60;57.40;;;;;;5086350;27;46571;-68
2023/08/26 01:47:17;;;;;;;13.30;5.53;;;20.60;57.20;;;;;;5090880;27;46514;-67
2023/08/26 01:49:46;;;;;;;8.27;6.07;;;20.60;56.90;;;;;;5088251;27;46428;-68
2023/08/26 01:52:11;;;;;;;11.53;5.57;;;20.60;56.70;;;;;;5089672;27;46591;-68
2023/08/26 01:54:37;;;;;;;7.37;5.20;;;20.60;56.60;;;;;;5085855;27;49414;-67
2023/08/26 01:57:03;;;;;;;7.47;5.40;;;20.60;56.20;;;;;;5089131;27;45969;-67
2023/08/26 01:59:28;;;;;;;6.73;5.10;;;20.50;56.20;;;;;;5087316;27;46368;-68
2023/08/26 02:01:54;;;;;;;8.10;5.70;;;20.50;56.00;;;;;;5090821;27;46418;-67
2023/08/26 02:04:20;;;;;;;11.90;5.70;;;20.50;55.90;;;;;;5089707;27;46392;-68
2023/08/26 02:06:46;;;;;;;7.83;4.57;;;20.50;55.70;;;;;;5088817;27;46509;-68
2023/08/26 02:09:11;;;;;;;7.20;4.23;;;20.50;55.50;;;;;;5087901;27;46473;-67
2023/08/26 02:11:37;;;;;;;7.60;4.17;;;20.50;55.10;;;;;;5087496;27;46602;-68
2023/08/26 02:14:03;;;;;;;8.50;4.53;;;20.60;54.80;;;;;;5087868;27;47331;-68
2023/08/26 02:16:28;;;;;;;7.40;4.43;;;20.50;53.70;;;;;;5087173;27;46410;-67
2023/08/26 02:18:54;;;;;;;6.70;3.77;;;20.50;54.70;;;;;;5088610;27;46527;-67
2023/08/26 02:21:19;;;;;;;7.10;3.90;;;20.50;54.50;;;;;;5087097;27;46798;-68
2023/08/26 02:23:45;;;;;;;6.53;3.97;;;20.50;54.80;;;;;;5087331;27;46405;-68
2023/08/26 02:26:12;;;;;;;8.47;4.80;;;20.40;55.20;;;;;;5087311;27;46550;-67
2023/08/26 02:28:37;;;;;;;7.43;5.10;;;20.30;55.60;;;;;;5085332;27;46459;-67
2023/08/26 02:31:03;;;;;;;7.70;4.30;;;20.30;55.80;;;;;;5087417;27;46469;-67
2023/08/26 02:33:29;;;;;;;11.53;4.97;;;20.30;55.70;;;;;;5088435;27;47260;-69
2023/08/26 02:35:55;;;;;;;8.23;5.03;;;20.20;55.60;;;;;;5089171;27;46373;-68
2023/08/26 02:38:20;;;;;;;10.20;4.83;;;20.20;55.50;;;;;;5090128;27;46387;-67
2023/08/26 02:40:53;;;;;;;7.77;5.17;;;20.20;55.40;;;;;;5088318;27;46307;-67
2023/08/26 02:43:20;;;;;;;9.40;4.33;;;20.20;55.30;;;;;;5088560;27;46363;-67
2023/08/26 02:45:46;;;;;;;8.40;4.80;;;20.30;55.30;;;;;;5088511;27;45931;-67
2023/08/26 02:48:11;;;;;;;11.47;5.57;;;20.30;55.40;;;;;;5086058;27;46384;-67
2023/08/26 02:50:38;;;;;;;8.13;4.57;;;20.20;55.30;;;;;;5089337;27;46389;-67
2023/08/26 02:53:04;;;;;;;9.03;4.20;;;20.20;55.50;;;;;;5085551;27;46932;-68
2023/08/26 02:55:29;;;;;;;12.10;4.60;;;20.20;55.40;;;;;;5089552;27;46484;-68
2023/08/26 02:57:55;;;;;;;13.27;4.43;;;20.20;55.40;;;;;;5085933;27;46640;-68
2023/08/26 03:00:21;;;;;;;7.97;4.57;;;20.10;55.40;;;;;;5089055;27;46412;-67
2023/08/26 03:02:46;;;;;;;8.63;3.80;;;20.10;55.70;;;;;;5084796;27;46427;-68
2023/08/26 03:05:12;;;;;;;9.00;4.53;;;20.00;55.90;;;;;;5083091;27;46502;-67
2023/08/26 03:07:37;;;;;;;8.97;4.83;;;19.90;56.40;;;;;;5085806;27;45903;-68
2023/08/26 03:10:03;;;;;;;8.47;4.67;;;19.90;56.70;;;;;;5085730;27;46376;-66
2023/08/26 03:12:29;;;;;;;8.60;5.63;;;19.80;57.00;;;;;;5088189;27;47268;-67
2023/08/26 03:14:54;;;;;;;10.00;5.57;;;19.80;57.10;;;;;;5085035;27;46492;-67
2023/08/26 03:17:20;;;;;;;13.13;5.73;;;19.80;57.10;;;;;;5087189;27;46506;-67
2023/08/26 03:19:46;;;;;;;11.33;5.70;;;19.80;57.10;;;;;;5090483;27;46368;-67
2023/08/26 03:22:11;;;;;;;7.57;5.43;;;19.80;56.90;;;;;;5082835;27;46440;-65
2023/08/26 03:24:38;;;;;;;9.47;5.00;;;19.80;57.00;;;;;;5085807;27;46530;-68
2023/08/26 03:27:04;;;;;;;6.90;4.77;;;19.80;57.00;;;;;;5083644;27;46578;-66
2023/08/26 03:29:29;;;;;;;8.20;5.30;;;19.80;57.10;;;;;;5086785;27;46419;-68
2023/08/26 03:31:55;;;;;;;11.63;4.80;;;19.70;57.20;;;;;;5083867;27;47263;-67
2023/08/26 03:34:21;;;;;;;7.77;4.93;;;19.70;57.40;;;;;;5083907;27;46495;-68
2023/08/26 03:36:46;;;;;;;10.47;5.60;;;20.00;57.70;;;;;;5083769;27;46828;-66
2023/08/26 03:39:12;;;;;;;6.77;4.47;;;19.70;57.60;;;;;;5087792;27;46352;-66
2023/08/26 03:41:38;;;;;;;8.97;5.33;;;19.80;57.50;;;;;;5082666;27;46242;-69
2023/08/26 03:44:04;;;;;;;9.07;4.80;;;19.80;58.40;;;;;;5086432;27;46528;-67
2023/08/26 03:46:30;;;;;;;7.57;4.40;;;19.80;56.00;;;;;;5086280;27;47527;-67
2023/08/26 03:48:55;;;;;;;8.67;5.03;;;19.80;57.00;;;;;;5085367;27;46900;-66
2023/08/26 03:51:21;;;;;;;10.40;5.90;;;19.90;57.00;;;;;;5082741;27;47078;-65
2023/08/26 03:53:47;;;;;;;8.37;4.60;;;19.90;57.90;;;;;;5085312;27;46381;-67
2023/08/26 03:56:13;;;;;;;7.27;4.90;;;19.90;56.60;;;;;;5084864;27;46485;-69
2023/08/26 03:58:39;;;;;;;8.40;5.00;;;20.00;56.60;;;;;;5082995;27;46819;-67
2023/08/26 04:01:05;;;;;;;12.73;5.13;;;20.00;56.60;;;;;;5086205;27;46670;-69
2023/08/26 04:03:31;;;;;;;7.67;5.03;;;20.00;56.70;;;;;;5083658;27;46834;-67
2023/08/26 04:06:01;;;;;;;7.77;5.20;;;20.00;57.00;;;;;;5083341;27;46414;-68
2023/08/26 04:08:29;;;;;;;8.73;4.90;;;20.00;56.90;;;;;;5083911;27;46486;-69
2023/08/26 04:10:56;;;;;;;10.23;4.83;;;20.00;56.90;;;;;;5083994;27;46180;-67
2023/08/26 04:13:24;;;;;;;8.33;5.27;;;20.00;56.80;;;;;;5081759;27;46313;-67
2023/08/26 04:15:53;;;;;;;8.03;5.47;;;20.10;56.70;;;;;;5082882;27;46647;-66
2023/08/26 04:18:19;;;;;;;6.10;4.40;;;20.10;56.80;;;;;;5081914;27;46563;-67
2023/08/26 04:20:45;;;;;;;7.87;5.10;;;20.10;56.90;;;;;;5084288;27;46509;-68
2023/08/26 04:23:11;;;;;;;10.47;5.33;;;20.10;56.70;;;;;;5084752;27;46505;-66
2023/08/26 04:25:38;;;;;;;6.90;4.80;;;20.10;56.60;;;;;;5086234;27;46804;-66
2023/08/26 04:28:04;;;;;;;6.43;4.97;;;20.20;56.60;;;;;;5085361;27;46520;-69
2023/08/26 04:30:30;;;;;;;13.30;5.80;;;20.20;56.60;;;;;;5087353;27;46643;-66
2023/08/26 04:32:55;;;;;;;12.00;5.07;;;20.10;56.80;;;;;;5082118;27;45793;-66
2023/08/26 04:35:21;;;;;;;8.93;4.90;;;20.00;57.70;;;;;;5081828;27;46651;-67
2023/08/26 04:37:46;;;;;;;7.27;5.00;;;19.90;58.20;;;;;;5084532;27;46425;-69
2023/08/26 04:40:12;;;;;;;13.13;5.03;;;19.80;58.90;;;;;;5085290;27;46756;-66
2023/08/26 04:42:39;;;;;;;11.80;5.50;;;19.70;60.00;;;;;;5081828;27;46557;-67
2023/08/26 04:45:05;;;;;;;10.33;5.50;;;19.60;60.40;;;;;;5084669;27;46909;-66
2023/08/26 04:47:31;;;;;;;10.30;6.47;;;19.60;60.40;;;;;;5088397;27;46780;-67
2023/08/26 04:49:57;;;;;;;8.23;5.53;;;19.60;60.50;;;;;;5086872;27;47173;-67
2023/08/26 04:52:22;;;;;;;6.70;5.30;;;19.70;60.50;;;;;;5089196;27;46465;-67
2023/08/26 04:54:48;;;;;;;9.47;5.57;;;19.60;60.40;;;;;;5087068;27;46619;-66
2023/08/26 04:57:14;;;;;;;11.30;5.70;;;19.70;60.50;;;;;;5087028;27;46896;-66
2023/08/26 04:59:39;;;;;;;9.03;5.50;;;19.70;60.50;;;;;;5088006;27;46421;-69
2023/08/26 05:02:08;;;;;;;9.73;5.23;;;19.70;60.50;;;;;;5087365;27;46706;-67
2023/08/26 05:04:34;;;;;;;12.33;5.70;;;19.70;60.60;;;;;;5084872;27;46634;-66
2023/08/26 05:07:00;;;;;;;6.90;5.20;;;19.80;60.50;;;;;;5084437;27;46669;-66
2023/08/26 05:09:27;;;;;;;8.97;4.80;;;19.90;60.00;;;;;;5086326;27;47519;-68
2023/08/26 05:11:55;;;;;;;9.23;5.77;;;20.00;59.50;;;;;;5086553;27;46231;-65
2023/08/26 05:14:21;;;;;;;9.90;5.67;;;20.10;59.20;;;;;;5086594;27;46459;-65
2023/08/26 05:16:46;;;;;;;9.87;5.87;;;20.20;59.10;;;;;;5086025;27;46439;-68
2023/08/26 05:19:12;;;;;;;15.83;5.23;;;20.30;58.90;;;;;;5088194;27;46461;-65
2023/08/26 05:21:38;;;;;;;10.80;5.40;;;20.40;58.80;;;;;;5089668;27;45832;-65
2023/08/26 05:24:03;;;;;;;9.60;5.43;;;20.40;58.50;;;;;;5084332;27;46524;-65
2023/08/26 05:26:29;;;;;;;11.37;5.63;;;20.50;57.60;;;;;;5086562;27;46473;-65
2023/08/26 05:28:54;;;;;;;9.73;5.57;;;20.50;58.60;;;;;;5087383;27;47051;-66
2023/08/26 05:31:20;;;;;;;8.33;5.17;;;20.60;58.50;;;;;;5085569;27;45850;-67
2023/08/26 05:33:46;;;;;;;8.43;5.57;;;20.60;58.50;;;;;;5085702;27;46904;-67
2023/08/26 05:36:11;;;;;;;10.70;5.63;;;20.60;58.60;;;;;;5087675;27;46540;-67
2023/08/26 05:38:37;;;;;;;9.17;6.23;;;20.60;58.50;;;;;;5086920;27;46473;-64
2023/08/26 05:41:03;;;;;;;13.93;5.90;;;20.60;58.40;;;;;;5077869;27;46361;-64
2023/08/26 05:43:30;;;;;;;9.27;6.10;;;20.70;58.30;;;;;;5075915;27;46446;-65
2023/08/26 05:45:58;;;;;;;8.07;5.70;;;20.80;58.10;;;;;;5080398;27;46479;-66
2023/08/26 05:48:24;;;;;;;7.30;4.93;;;20.80;57.70;;;;;;5073308;27;48060;-67
2023/08/26 05:50:49;;;;;;;10.57;6.00;;;20.90;57.60;;;;;;5081578;27;46484;-68
2023/08/26 05:53:15;;;;;;;6.03;4.80;;;20.90;57.30;;;;;;5088981;27;46524;-66
2023/08/26 05:55:41;;;;;;;9.47;5.50;;;21.00;57.20;;;;;;5085773;27;46851;-65
2023/08/26 05:58:07;;;;;;;8.73;5.73;;;21.00;57.10;;;;;;5086642;27;47361;-66
2023/08/26 06:00:34;;;;;;;10.20;4.57;;;21.10;57.00;;;;;;5087177;27;46443;-67
2023/08/26 06:03:00;;;;;;;9.03;5.20;;;21.10;57.00;;;;;;5084723;27;46687;-67
2023/08/26 06:05:25;;;;;;;9.40;5.53;;;21.10;56.80;;;;;;5086665;27;46647;-67
2023/08/26 06:07:52;;;;;;;7.63;4.90;;;21.20;56.60;;;;;;5084816;27;47154;-65
2023/08/26 06:10:18;;;;;;;8.53;5.60;;;21.20;56.50;;;;;;5067388;27;46521;-65
2023/08/26 06:12:44;;;;;;;8.83;5.50;;;21.40;56.40;;;;;;5089512;27;46503;-65
2023/08/26 06:15:10;;;;;;;10.60;4.77;;;21.40;56.30;;;;;;5096934;22;46749;-67
2023/08/26 06:17:36;;;;;;;7.60;4.70;;;21.50;56.10;;;;;;5087464;27;47887;-67
2023/08/26 06:20:03;;;;;;;7.63;5.40;;;21.50;55.70;;;;;;5084266;27;46706;-68
2023/08/26 06:22:29;;;;;;;8.60;5.60;;;21.60;55.40;;;;;;5086327;27;46702;-67
2023/08/26 06:24:55;;;;;;;9.53;5.30;;;21.80;55.00;;;;;;5084777;27;46462;-66
2023/08/26 06:27:23;;;;;;;7.13;6.20;;;22.00;54.20;;;;;;5085588;27;46509;-67
2023/08/26 06:29:53;;;;;;;8.13;4.77;;;22.30;53.60;;;;;;5085049;27;46465;-68
2023/08/26 06:32:22;;;;;;;9.73;5.10;;;22.50;53.00;;;;;;5085390;27;46584;-68
2023/08/26 06:34:47;;;;;;;7.37;4.93;;;22.60;52.80;;;;;;5082611;27;46401;-68
2023/08/26 06:37:14;;;;;;;7.03;4.80;;;22.80;52.10;;;;;;5083545;27;47266;-68
2023/08/26 06:39:39;;;;;;;6.23;4.43;;;23.50;50.90;;;;;;5085443;27;46386;-68
2023/08/26 06:42:05;;;;;;;7.17;4.63;;;23.70;48.20;;;;;;5081248;27;46503;-68
2023/08/26 06:44:31;;;;;;;9.17;4.70;;;23.40;48.70;;;;;;5083334;27;45950;-68
2023/08/26 06:46:57;;;;;;;9.60;4.40;;;23.00;51.60;;;;;;5082540;27;46324;-67
2023/08/26 06:49:22;;;;;;;8.57;5.40;;;22.70;50.50;;;;;;5085269;27;46649;-67
2023/08/26 06:51:48;;;;;;;6.77;4.37;;;22.40;51.70;;;;;;5086218;27;46593;-64
2023/08/26 06:54:14;;;;;;;12.33;6.00;;;22.30;52.40;;;;;;5083744;27;46418;-64
2023/08/26 06:56:39;;;;;;;11.00;5.03;;;22.10;52.70;;;;;;5085421;27;46803;-64
2023/08/26 06:59:05;;;;;;;8.50;4.70;;;22.10;53.10;;;;;;5085699;27;45897;-64
2023/08/26 07:01:32;;;;;;;7.20;4.97;;;22.00;53.10;;;;;;5083898;27;46470;-65
2023/08/26 07:04:05;;;;;;;7.17;5.00;;;22.00;53.10;;;;;;5084586;27;46426;-66
2023/08/26 07:06:31;;;;;;;10.00;5.00;;;21.90;52.00;;;;;;5082014;27;47277;-64
2023/08/26 07:08:57;;;;;;;8.77;5.53;;;22.00;53.00;;;;;;5082212;27;46495;-65
2023/08/26 07:11:22;;;;;;;10.63;5.37;;;22.00;52.70;;;;;;5084215;27;46875;-65
2023/08/26 07:13:48;;;;;;;8.33;5.03;;;22.40;52.20;;;;;;5084826;27;46444;-66
2023/08/26 07:16:14;;;;;;;8.30;5.07;;;22.70;51.00;;;;;;5081582;27;46925;-66
2023/08/26 07:18:39;;;;;;;6.53;4.73;;;23.00;50.40;;;;;;5080999;27;46470;-65
2023/08/26 07:21:05;;;;;;;7.10;4.40;;;23.20;50.00;;;;;;5086502;27;46656;-66
2023/08/26 07:23:32;;;;;;;9.70;5.40;;;23.30;49.00;;;;;;5087874;27;46422;-65
2023/08/26 07:25:57;;;;;;;7.70;5.17;;;23.40;48.70;;;;;;5087775;27;46172;-66
2023/08/26 07:28:23;;;;;;;9.60;4.30;;;23.60;48.20;;;;;;5086388;27;46327;-67
2023/08/26 07:30:49;;;;;;;11.57;5.47;;;23.70;47.90;;;;;;5084791;27;46559;-66
2023/08/26 07:33:15;;;;;;;11.07;5.93;;;23.90;47.40;;;;;;5083274;27;46537;-65
2023/08/26 07:35:40;;;;;;;8.13;5.40;;;24.10;46.60;;;;;;5082830;27;46647;-65
2023/08/26 07:38:06;;;;;;;9.30;5.40;;;24.00;46.30;;;;;;5083573;27;46891;-66
2023/08/26 07:40:31;;;;;;;12.50;5.40;;;23.90;46.40;;;;;;5085968;27;46530;-66
2023/08/26 07:42:59;;;;;;;7.67;5.37;;;23.80;46.50;;;;;;5084858;27;46593;-66
2023/08/26 07:45:24;;;;;;;8.87;4.77;;;24.00;46.60;;;;;;5083628;27;46672;-66
2023/08/26 07:47:50;;;;;;;10.27;5.20;;;24.00;46.20;;;;;;5083284;27;46397;-66
2023/08/26 07:50:16;;;;;;;9.47;3.90;;;24.10;45.80;;;;;;5083568;27;46524;-64
2023/08/26 07:52:41;;;;;;;6.33;4.20;;;24.30;44.70;;;;;;5085802;27;46783;-67
2023/08/26 07:55:07;;;;;;;11.63;4.30;;;24.40;44.30;;;;;;5082378;27;46399;-66
2023/08/26 07:57:33;;;;;;;6.20;4.03;;;24.40;43.60;;;;;;5080813;27;46780;-66
2023/08/26 07:59:58;;;;;;;6.50;4.27;;;24.50;42.90;;;;;;5086239;27;46907;-65
2023/08/26 08:02:24;;;;;;;8.53;4.47;;;24.60;42.00;;;;;;5084919;27;46501;-66
2023/08/26 08:04:50;;;;;;;7.40;3.83;;;24.70;41.00;;;;;;5083752;27;46812;-66
2023/08/26 08:07:15;;;;;;;6.00;3.83;;;24.70;40.50;;;;;;5082390;27;46469;-67
2023/08/26 08:09:41;;;;;;;12.50;4.40;;;24.80;39.90;;;;;;5084566;27;46805;-66
2023/08/26 08:12:09;;;;;;;12.07;4.77;;;24.90;39.30;;;;;;5084208;27;45907;-64
2023/08/26 08:14:34;;;;;;;16.33;4.70;;;24.90;38.70;;;;;;5084629;27;47228;-66
2023/08/26 08:17:00;;;;;;;11.00;4.90;;;25.00;38.60;;;;;;5085608;27;46196;-66
2023/08/26 08:19:25;;;;;;;12.53;5.30;;;25.10;36.90;;;;;;5083576;27;46673;-66
2023/08/26 08:21:51;;;;;;;8.83;4.17;;;25.10;35.70;;;;;;5084791;27;46733;-66
2023/08/26 08:24:17;;;;;;;8.90;4.23;;;25.30;34.40;;;;;;5081701;27;46608;-66
2023/08/26 08:26:43;;;;;;;15.70;4.50;;;25.80;31.60;;;;;;5082954;27;46393;-65
2023/08/26 08:29:10;;;;;;;7.53;4.17;;;26.20;30.60;;;;;;5084221;27;46588;-66
2023/08/26 08:31:36;;;;;;;10.03;4.30;;;26.50;29.50;;;;;;5084492;27;46695;-65
2023/08/26 08:34:04;;;;;;;11.30;4.60;;;26.20;29.50;;;;;;5084686;27;46466;-66
2023/08/26 08:36:29;;;;;;;14.50;5.10;;;26.30;28.60;;;;;;5082890;27;45852;-65
2023/08/26 08:38:56;;;;;;;9.83;4.63;;;26.30;29.10;;;;;;5083024;27;46493;-70
2023/08/26 08:41:22;;;;;;;9.60;4.50;;;26.50;28.50;;;;;;5084547;27;46390;-66
2023/08/26 08:43:52;;;;;;;15.20;4.93;;;26.80;27.30;;;;;;5081538;27;47116;-66
2023/08/26 08:46:19;;;;;;;8.90;4.30;;;26.70;26.00;;;;;;5082849;27;46472;-66
2023/08/26 08:48:45;;;;;;;12.53;5.17;;;26.70;26.90;;;;;;5083371;27;46375;-65
2023/08/26 08:51:12;;;;;;;7.60;4.77;;;26.60;26.80;;;;;;5081222;27;46374;-66
2023/08/26 08:53:44;;;;;;;15.03;5.87;;;26.50;26.80;;;;;;5074933;27;46479;-64
2023/08/26 08:56:12;;;;;;;9.03;4.60;;;26.30;26.70;;;;;;5081794;27;46729;-64
2023/08/26 08:58:39;;;;;;;10.23;4.77;;;26.40;26.80;;;;;;5079991;27;46319;-66
2023/08/26 09:01:04;;;;;;;9.47;4.90;;;26.60;26.70;;;;;;5080296;27;46419;-66
2023/08/26 09:03:31;;;;;;;10.63;4.17;;;26.90;25.80;;;;;;5081926;27;46701;-65
2023/08/26 09:05:56;;;;;;;11.43;4.60;;;27.30;24.90;;;;;;5082825;27;45889;-65
2023/08/26 09:08:24;;;;;;;7.47;4.57;;;27.50;24.40;;;;;;5079784;27;46879;-66
2023/08/26 09:10:51;;;;;;;13.67;4.93;;;27.70;24.10;;;;;;5096059;22;46560;-65
2023/08/26 09:13:17;;;;;;;10.23;4.47;;;27.80;24.00;;;;;;5087614;27;46412;-65
2023/08/26 09:15:42;;;;;;;10.67;4.43;;;27.30;24.00;;;;;;5088111;27;46418;-65
2023/08/26 09:18:12;;;;;;;12.13;4.30;;;27.10;23.90;;;;;;5087508;27;46466;-66
2023/08/26 09:20:41;;;;;;;10.83;4.90;;;27.10;23.60;;;;;;5085947;27;45907;-66
2023/08/26 09:23:09;;;;;;;6.53;4.57;;;27.50;22.30;;;;;;5087026;27;48270;-67
2023/08/26 09:25:36;;;;;;;10.37;4.60;;;27.30;21.80;;;;;;5082604;27;46463;-66
2023/08/26 09:28:03;;;;;;;6.50;4.23;;;27.40;20.80;;;;;;5082579;27;46506;-66
2023/08/26 09:30:29;;;;;;;8.20;4.50;;;27.00;20.80;;;;;;5088791;27;46636;-65
2023/08/26 09:32:55;;;;;;;10.60;5.20;;;27.20;21.30;;;;;;5089046;27;47782;-65
2023/08/26 09:35:21;;;;;;;12.53;5.37;;;27.20;21.60;;;;;;5089375;27;46784;-64
2023/08/26 09:37:48;;;;;;;8.30;4.60;;;26.80;22.00;;;;;;5085839;27;46986;-65
2023/08/26 09:40:15;;;;;;;10.83;5.27;;;26.40;23.30;;;;;;5088473;27;46564;-66
2023/08/26 09:42:42;;;;;;;6.73;3.70;;;26.30;24.10;;;;;;5086202;27;46227;-66
2023/08/26 09:45:14;;;;;;;7.67;4.97;;;26.20;24.40;;;;;;5088902;27;46396;-65
2023/08/26 09:47:40;;;;;;;12.47;4.70;;;26.20;24.40;;;;;;5096203;27;46576;-64
2023/08/26 09:50:07;;;;;;;13.63;6.10;;;26.20;24.50;;;;;;5084321;27;46634;-66
2023/08/26 09:52:49;;;;;;;11.70;4.63;;;26.30;24.70;;;;;;5085100;27;47859;-66
2023/08/26 09:55:15;;;;;;;9.10;4.53;;;26.20;24.50;;;;;;5094398;27;46464;-67
2023/08/26 09:57:43;;;;;;;11.00;4.90;;;26.20;24.80;;;;;;5086792;27;46463;-65
2023/08/26 10:00:12;;;;;;;9.43;4.50;;;26.10;24.90;;;;;;5090772;27;46414;-65
2023/08/26 10:02:54;;;;;;;18.93;5.00;;;26.10;25.10;;;;;;5088653;27;47813;-65
2023/08/26 10:05:21;;;;;;;7.80;4.57;;;26.20;24.80;;;;;;5085315;27;46454;-65
2023/08/26 10:07:51;;;;;;;9.70;4.27;;;26.20;24.30;;;;;;5084915;27;46479;-66
2023/08/26 10:10:49;;;;;;;10.30;4.47;;;26.40;23.80;;;;;;5083089;27;46456;-67
2023/08/26 10:13:18;;;;;;;10.43;4.53;;;26.90;23.00;;;;;;5084368;27;47334;-65
2023/08/26 10:15:44;;;;;;;12.73;4.83;;;27.50;22.00;;;;;;5086245;27;46414;-67
2023/08/26 10:18:27;;;;;;;6.87;4.30;;;27.50;21.50;;;;;;5085454;27;46608;-66
2023/08/26 10:20:53;;;;;;;12.90;4.67;;;27.30;21.90;;;;;;5086464;27;46447;-66
2023/08/26 10:23:19;;;;;;;11.37;4.43;;;27.10;23.00;;;;;;5086601;27;48054;-66
2023/08/26 10:25:45;;;;;;;10.90;5.43;;;27.00;23.10;;;;;;5085240;27;46842;-66
2023/08/26 10:28:11;;;;;;;13.67;5.60;;;26.70;23.30;;;;;;5086289;27;45898;-66
2023/08/26 10:30:37;;;;;;;16.87;5.40;;;26.30;23.90;;;;;;5084071;27;46200;-68
2023/08/26 10:33:05;;;;;;;11.30;4.60;;;26.40;23.90;;;;;;5084525;27;47901;-66
2023/08/26 10:35:31;;;;;;;8.77;5.00;;;26.50;23.70;;;;;;5089122;27;46451;-66
2023/08/26 10:38:10;;;;;;;12.57;4.20;;;26.50;23.50;;;;;;5087844;27;46752;-66
2023/08/26 10:40:36;;;;;;;10.60;4.80;;;26.60;23.50;;;;;;5087998;27;46640;-67
2023/08/26 10:43:14;;;;;;;10.47;4.33;;;26.70;23.30;;;;;;5087718;27;47932;-67
2023/08/26 10:45:50;;;;;;;9.17;4.87;;;26.80;22.70;;;;;;5087216;27;46404;-67
2023/08/26 10:48:16;;;;;;;9.00;4.13;;;27.10;22.20;;;;;;5096579;27;46400;-67
2023/08/26 10:50:47;;;;;;;14.90;5.20;;;27.30;22.10;;;;;;5086567;27;46182;-67
2023/08/26 10:53:15;;;;;;;8.57;4.60;;;27.20;22.00;;;;;;5084918;27;47907;-68
2023/08/26 10:55:41;;;;;;;9.80;4.70;;;27.30;21.50;;;;;;5086210;27;45859;-67
2023/08/26 10:58:17;;;;;;;10.47;5.30;;;27.30;21.60;;;;;;5087841;27;46840;-69
2023/08/26 11:00:48;;;;;;;16.23;4.20;;;27.20;21.50;;;;;;5092983;27;46841;-67
2023/08/26 11:03:16;;;;;;;10.93;4.20;;;27.20;21.70;;;;;;5089118;27;47997;-66
2023/08/26 11:05:44;;;;;;;8.17;4.20;;;27.20;21.60;;;;;;5082670;27;45902;-66
2023/08/26 11:08:10;;;;;;;9.27;4.47;;;27.30;21.60;;;;;;5086484;27;46371;-68
2023/08/26 11:10:39;;;;;;;12.97;5.07;;;27.20;21.50;;;;;;5087510;27;46408;-67
2023/08/26 11:13:05;;;;;;;9.23;4.50;;;27.10;21.50;;;;;;5084550;27;48199;-67
2023/08/26 11:15:35;;;;;;;11.60;3.97;;;27.10;21.70;;;;;;5084455;27;46728;-68
2023/08/26 11:18:01;;;;;;;8.30;4.23;;;27.20;21.40;;;;;;5084680;27;46420;-67
2023/08/26 11:20:31;;;;;;;12.57;4.47;;;27.20;21.40;;;;;;5086243;27;46438;-66
2023/08/26 11:22:57;;;;;;;10.90;4.50;;;27.30;21.40;;;;;;5088263;27;46777;-66
2023/08/26 11:25:23;;;;;;;12.70;4.97;;;27.50;21.00;;;;;;5081693;27;46443;-67
2023/08/26 11:27:49;;;;;;;10.40;4.60;;;27.70;20.60;;;;;;5083961;27;46382;-68
2023/08/26 11:30:14;;;;;;;11.20;5.80;;;27.50;20.90;;;;;;5084149;27;46336;-67
2023/08/26 11:32:41;;;;;;;7.67;4.30;;;27.30;20.90;;;;;;5092129;27;48031;-67
2023/08/26 11:35:09;;;;;;;9.60;4.27;;;27.10;21.60;;;;;;5085095;27;45766;-67
2023/08/26 11:37:48;;;;;;;8.63;4.40;;;27.10;21.40;;;;;;5083703;27;46723;-67
2023/08/26 11:40:15;;;;;;;14.00;4.40;;;27.30;21.00;;;;;;5082800;27;46460;-67
2023/08/26 11:42:41;;;;;;;9.20;4.70;;;27.50;20.60;;;;;;5085938;27;46343;-66
2023/08/26 11:45:11;;;;;;;12.20;5.07;;;27.50;20.30;;;;;;5084260;27;46727;-67
2023/08/26 11:47:38;;;;;;;10.40;4.70;;;27.40;20.50;;;;;;5086205;27;45890;-67
2023/08/26 11:50:04;;;;;;;12.13;4.27;;;27.50;20.50;;;;;;5087345;27;46515;-65
2023/08/26 11:52:34;;;;;;;11.77;4.67;;;27.60;20.30;;;;;;5084754;27;48710;-66
2023/08/26 11:55:06;;;;;;;13.63;5.00;;;27.70;20.10;;;;;;5084246;27;46439;-66
2023/08/26 11:57:35;;;;;;;7.83;4.97;;;27.50;20.30;;;;;;5088077;27;46415;-70
2023/08/26 12:00:09;;;;;;;8.60;5.10;;;27.30;20.90;;;;;;5092145;27;46416;-66
2023/08/26 12:02:35;;;;;;;13.53;5.23;;;27.00;21.60;;;;;;5082939;27;48520;-67
2023/08/26 12:05:02;;;;;;;12.03;5.70;;;26.90;21.90;;;;;;5083514;27;46515;-67
2023/08/26 12:07:31;;;;;;;10.50;5.00;;;26.80;22.00;;;;;;5087495;27;46441;-66
2023/08/26 12:09:59;;;;;;;10.10;5.43;;;26.70;22.40;;;;;;5083385;27;46535;-66
2023/08/26 12:12:25;;;;;;;10.90;4.93;;;26.90;21.90;;;;;;5085589;27;47976;-66
2023/08/26 12:14:51;;;;;;;12.87;5.90;;;26.60;22.20;;;;;;5085618;27;47219;-66
2023/08/26 12:17:17;;;;;;;12.07;5.60;;;26.60;22.50;;;;;;5084298;27;46448;-65
2023/08/26 12:19:43;;;;;;;13.00;6.33;;;26.80;22.30;;;;;;5083012;27;46411;-66
2023/08/26 12:22:10;;;;;;;9.53;6.10;;;26.70;22.30;;;;;;5084593;27;48840;-66
2023/08/26 12:24:40;;;;;;;11.60;5.57;;;26.50;22.80;;;;;;5081046;27;46511;-66
2023/08/26 12:27:09;;;;;;;11.43;5.20;;;26.50;22.40;;;;;;5083950;27;46475;-68
2023/08/26 12:29:36;;;;;;;7.73;4.57;;;26.50;23.20;;;;;;5081780;27;46469;-66
2023/08/26 12:32:02;;;;;;;11.07;5.30;;;26.50;23.10;;;;;;5082093;27;48695;-66
2023/08/26 12:34:28;;;;;;;8.80;4.60;;;26.70;22.60;;;;;;5089520;27;46395;-68
2023/08/26 12:36:54;;;;;;;10.80;5.20;;;26.80;22.30;;;;;;5084365;27;46746;-68
2023/08/26 12:39:22;;;;;;;14.77;5.50;;;26.60;22.70;;;;;;5081813;27;46416;-66